sensor_id;sensor_type;location;lat;lon;timestamp;P1;durP1;ratioP1;P2;durP2;ratioP2
25169;SDS011;13129;48.012;10.352;2022-07-23T03:32:27;11.63;;;10.45;;
25169;SDS011;13129;48.012;10.352;2022-07-23T03:34:53;11.43;;;10.43;;
25169;SDS011;13129;48.012;10.352;2022-07-23T03:37:19;10.98;;;9.98;;
25169;SDS011;13129;48.012;10.352;2022-07-23T03:39:45;11.88;;;10.73;;
25169;SDS011;13129;48.012;10.352;2022-07-23T03:42:11;11.40;;;10.40;;
25169;SDS011;13129;48.012;10.352;2022-07-23T03:44:37;11.20;;;10.10;;
25169;SDS011;13129;48.012;10.352;2022-07-23T03:47:04;10.90;;;9.80;;
25169;SDS011;13129;48.012;10.352;2022-07-23T03:49:30;11.48;;;10.40;;
25169;SDS011;13129;48.012;10.352;2022-07-23T03:51:56;12.13;;;11.02;;
25169;SDS011;13129;48.012;10.352;2022-07-23T03:54:22;11.00;;;10.00;;
25169;SDS011;13129;48.012;10.352;2022-07-23T03:56:48;11.20;;;10.05;;
25169;SDS011;13129;48.012;10.352;2022-07-23T03:59:13;11.50;;;9.57;;
25169;SDS011;13129;48.012;10.352;2022-07-23T04:01:39;10.40;;;9.35;;
25169;SDS011;13129;48.012;10.352;2022-07-23T04:04:05;10.98;;;10.05;;
25169;SDS011;13129;48.012;10.352;2022-07-23T04:06:30;11.05;;;10.05;;
25169;SDS011;13129;48.012;10.352;2022-07-23T04:08:57;11.77;;;10.68;;
25169;SDS011;13129;48.012;10.352;2022-07-23T04:11:23;11.30;;;10.20;;
25169;SDS011;13129;48.012;10.352;2022-07-23T04:13:48;10.90;;;9.90;;
25169;SDS011;13129;48.012;10.352;2022-07-23T04:16:14;10.60;;;9.70;;
25169;SDS011;13129;48.012;10.352;2022-07-23T04:18:40;11.13;;;10.02;;
25169;SDS011;13129;48.012;10.352;2022-07-23T04:21:06;11.43;;;10.35;;
25169;SDS011;13129;48.012;10.352;2022-07-23T04:23:31;12.07;;;10.98;;
25169;SDS011;13129;48.012;10.352;2022-07-23T04:25:57;12.23;;;11.00;;
25169;SDS011;13129;48.012;10.352;2022-07-23T04:28:23;12.15;;;11.05;;
25169;SDS011;13129;48.012;10.352;2022-07-23T04:30:48;12.63;;;11.27;;
25169;SDS011;13129;48.012;10.352;2022-07-23T04:33:14;11.48;;;10.45;;
25169;SDS011;13129;48.012;10.352;2022-07-23T04:35:39;10.18;;;9.35;;
25169;SDS011;13129;48.012;10.352;2022-07-23T04:38:05;10.57;;;9.57;;
25169;SDS011;13129;48.012;10.352;2022-07-23T04:40:31;11.43;;;10.32;;
25169;SDS011;13129;48.012;10.352;2022-07-23T04:42:56;11.98;;;10.77;;
25169;SDS011;13129;48.012;10.352;2022-07-23T04:45:22;12.40;;;11.25;;
25169;SDS011;13129;48.012;10.352;2022-07-23T04:47:49;11.35;;;10.13;;
25169;SDS011;13129;48.012;10.352;2022-07-23T04:50:15;12.23;;;11.07;;
25169;SDS011;13129;48.012;10.352;2022-07-23T04:52:44;12.73;;;11.43;;
25169;SDS011;13129;48.012;10.352;2022-07-23T04:55:10;12.25;;;10.95;;
25169;SDS011;13129;48.012;10.352;2022-07-23T04:57:35;12.23;;;11.00;;
25169;SDS011;13129;48.012;10.352;2022-07-23T05:00:02;13.00;;;10.88;;
25169;SDS011;13129;48.012;10.352;2022-07-23T05:02:29;13.27;;;12.07;;
25169;SDS011;13129;48.012;10.352;2022-07-23T05:04:54;11.63;;;10.38;;
25169;SDS011;13129;48.012;10.352;2022-07-23T05:07:20;11.77;;;10.73;;
25169;SDS011;13129;48.012;10.352;2022-07-23T05:09:46;12.18;;;11.05;;
25169;SDS011;13129;48.012;10.352;2022-07-23T05:12:11;15.32;;;11.07;;
25169;SDS011;13129;48.012;10.352;2022-07-23T05:14:37;12.35;;;11.25;;
25169;SDS011;13129;48.012;10.352;2022-07-23T05:17:03;13.27;;;12.05;;
25169;SDS011;13129;48.012;10.352;2022-07-23T05:19:28;11.90;;;10.77;;
25169;SDS011;13129;48.012;10.352;2022-07-23T05:21:54;11.43;;;10.43;;
25169;SDS011;13129;48.012;10.352;2022-07-23T05:24:20;11.43;;;10.15;;
25169;SDS011;13129;48.012;10.352;2022-07-23T05:26:45;11.00;;;10.10;;
25169;SDS011;13129;48.012;10.352;2022-07-23T05:29:11;11.75;;;10.75;;
25169;SDS011;13129;48.012;10.352;2022-07-23T05:31:37;11.55;;;10.55;;
25169;SDS011;13129;48.012;10.352;2022-07-23T05:34:02;11.15;;;10.05;;
25169;SDS011;13129;48.012;10.352;2022-07-23T05:36:28;11.50;;;10.50;;
25169;SDS011;13129;48.012;10.352;2022-07-23T05:38:56;11.63;;;10.52;;
25169;SDS011;13129;48.012;10.352;2022-07-23T05:41:22;13.15;;;11.40;;
25169;SDS011;13129;48.012;10.352;2022-07-23T05:43:47;12.45;;;11.35;;
25169;SDS011;13129;48.012;10.352;2022-07-23T05:46:13;10.65;;;9.75;;
25169;SDS011;13129;48.012;10.352;2022-07-23T05:48:39;13.27;;;11.77;;
25169;SDS011;13129;48.012;10.352;2022-07-23T05:51:04;12.80;;;11.70;;
25169;SDS011;13129;48.012;10.352;2022-07-23T05:53:32;13.10;;;12.00;;
25169;SDS011;13129;48.012;10.352;2022-07-23T05:55:58;13.65;;;12.35;;
25169;SDS011;13129;48.012;10.352;2022-07-23T05:58:23;13.13;;;12.00;;
25169;SDS011;13129;48.012;10.352;2022-07-23T06:00:49;14.10;;;12.70;;
25169;SDS011;13129;48.012;10.352;2022-07-23T06:03:15;13.07;;;11.88;;
25169;SDS011;13129;48.012;10.352;2022-07-23T06:05:40;13.23;;;11.80;;
25169;SDS011;13129;48.012;10.352;2022-07-23T06:08:06;12.98;;;11.70;;
25169;SDS011;13129;48.012;10.352;2022-07-23T06:10:32;15.05;;;13.55;;
25169;SDS011;13129;48.012;10.352;2022-07-23T06:12:57;13.70;;;12.38;;
25169;SDS011;13129;48.012;10.352;2022-07-23T06:15:23;15.32;;;13.82;;
25169;SDS011;13129;48.012;10.352;2022-07-23T06:17:49;14.52;;;13.23;;
25169;SDS011;13129;48.012;10.352;2022-07-23T06:20:14;18.25;;;16.38;;
25169;SDS011;13129;48.012;10.352;2022-07-23T06:22:40;17.40;;;15.60;;
25169;SDS011;13129;48.012;10.352;2022-07-23T06:25:07;17.15;;;15.55;;
25169;SDS011;13129;48.012;10.352;2022-07-23T06:27:33;14.75;;;13.35;;
25169;SDS011;13129;48.012;10.352;2022-07-23T06:29:59;15.13;;;13.57;;
25169;SDS011;13129;48.012;10.352;2022-07-23T06:32:24;15.80;;;14.18;;
25169;SDS011;13129;48.012;10.352;2022-07-23T06:34:50;14.23;;;12.48;;
25169;SDS011;13129;48.012;10.352;2022-07-23T06:37:16;15.05;;;13.18;;
25169;SDS011;13129;48.012;10.352;2022-07-23T06:39:42;15.85;;;14.30;;
25169;SDS011;13129;48.012;10.352;2022-07-23T06:42:07;14.15;;;12.73;;
25169;SDS011;13129;48.012;10.352;2022-07-23T06:44:33;15.20;;;12.93;;
25169;SDS011;13129;48.012;10.352;2022-07-23T06:46:59;14.52;;;12.57;;
25169;SDS011;13129;48.012;10.352;2022-07-23T06:49:24;16.02;;;13.52;;
25169;SDS011;13129;48.012;10.352;2022-07-23T06:51:50;15.45;;;13.95;;
25169;SDS011;13129;48.012;10.352;2022-07-23T06:54:16;15.15;;;13.68;;
25169;SDS011;13129;48.012;10.352;2022-07-23T06:56:41;16.88;;;15.18;;
25169;SDS011;13129;48.012;10.352;2022-07-23T06:59:08;15.40;;;13.88;;
25169;SDS011;13129;48.012;10.352;2022-07-23T07:01:34;13.52;;;12.15;;
25169;SDS011;13129;48.012;10.352;2022-07-23T07:03:59;14.80;;;13.30;;
25169;SDS011;13129;48.012;10.352;2022-07-23T07:06:25;13.85;;;12.65;;
25169;SDS011;13129;48.012;10.352;2022-07-23T07:08:50;14.82;;;13.32;;
25169;SDS011;13129;48.012;10.352;2022-07-23T07:11:16;13.50;;;11.75;;
25169;SDS011;13129;48.012;10.352;2022-07-23T07:13:42;13.38;;;12.07;;
25169;SDS011;13129;48.012;10.352;2022-07-23T07:16:07;12.23;;;11.13;;
25169;SDS011;13129;48.012;10.352;2022-07-23T07:18:33;12.88;;;11.77;;
25169;SDS011;13129;48.012;10.352;2022-07-23T07:20:59;12.95;;;11.68;;
25169;SDS011;13129;48.012;10.352;2022-07-23T07:23:25;14.02;;;12.73;;
25169;SDS011;13129;48.012;10.352;2022-07-23T07:25:50;13.02;;;11.73;;
25169;SDS011;13129;48.012;10.352;2022-07-23T07:28:16;13.32;;;12.10;;
25169;SDS011;13129;48.012;10.352;2022-07-23T07:30:41;12.68;;;11.57;;
25169;SDS011;13129;48.012;10.352;2022-07-23T07:33:07;12.10;;;10.90;;
25169;SDS011;13129;48.012;10.352;2022-07-23T07:35:33;12.10;;;11.00;;
25169;SDS011;13129;48.012;10.352;2022-07-23T07:37:59;11.98;;;10.90;;
25169;SDS011;13129;48.012;10.352;2022-07-23T07:40:25;11.77;;;10.68;;
25169;SDS011;13129;48.012;10.352;2022-07-23T07:42:51;11.57;;;10.57;;
25169;SDS011;13129;48.012;10.352;2022-07-23T07:45:22;11.65;;;10.55;;
25169;SDS011;13129;48.012;10.352;2022-07-23T07:47:49;11.13;;;10.02;;
25169;SDS011;13129;48.012;10.352;2022-07-23T07:50:15;10.95;;;9.95;;
25169;SDS011;13129;48.012;10.352;2022-07-23T07:52:41;10.98;;;10.02;;
25169;SDS011;13129;48.012;10.352;2022-07-23T07:55:08;10.45;;;9.43;;
25169;SDS011;13129;48.012;10.352;2022-07-23T07:57:34;11.02;;;9.95;;
25169;SDS011;13129;48.012;10.352;2022-07-23T08:00:00;9.45;;;8.63;;
25169;SDS011;13129;48.012;10.352;2022-07-23T08:02:26;10.63;;;9.68;;
25169;SDS011;13129;48.012;10.352;2022-07-23T08:04:52;10.35;;;9.35;;
25169;SDS011;13129;48.012;10.352;2022-07-23T08:07:18;10.40;;;9.43;;
25169;SDS011;13129;48.012;10.352;2022-07-23T08:09:44;10.02;;;9.05;;
25169;SDS011;13129;48.012;10.352;2022-07-23T08:12:09;11.35;;;10.20;;
25169;SDS011;13129;48.012;10.352;2022-07-23T08:14:35;11.18;;;10.15;;
25169;SDS011;13129;48.012;10.352;2022-07-23T08:17:00;10.88;;;9.88;;
25169;SDS011;13129;48.012;10.352;2022-07-23T08:19:26;11.25;;;9.95;;
25169;SDS011;13129;48.012;10.352;2022-07-23T08:21:52;12.02;;;9.80;;
25169;SDS011;13129;48.012;10.352;2022-07-23T08:24:17;11.10;;;10.20;;
25169;SDS011;13129;48.012;10.352;2022-07-23T08:26:43;9.20;;;8.40;;
25169;SDS011;13129;48.012;10.352;2022-07-23T08:29:10;10.15;;;9.15;;
25169;SDS011;13129;48.012;10.352;2022-07-23T08:31:35;9.27;;;8.57;;
25169;SDS011;13129;48.012;10.352;2022-07-23T08:34:01;9.32;;;8.43;;
25169;SDS011;13129;48.012;10.352;2022-07-23T08:36:27;7.78;;;7.07;;
25169;SDS011;13129;48.012;10.352;2022-07-23T08:38:57;7.07;;;6.57;;
25169;SDS011;13129;48.012;10.352;2022-07-23T08:41:23;7.45;;;6.90;;
25169;SDS011;13129;48.012;10.352;2022-07-23T08:43:50;7.03;;;6.53;;
25169;SDS011;13129;48.012;10.352;2022-07-23T08:46:16;7.43;;;6.78;;
25169;SDS011;13129;48.012;10.352;2022-07-23T08:48:44;7.07;;;6.57;;
25169;SDS011;13129;48.012;10.352;2022-07-23T08:51:13;7.07;;;6.47;;
25169;SDS011;13129;48.012;10.352;2022-07-23T08:53:39;7.70;;;7.07;;
25169;SDS011;13129;48.012;10.352;2022-07-23T08:56:06;7.60;;;7.00;;
25169;SDS011;13129;48.012;10.352;2022-07-23T08:58:33;7.78;;;7.07;;
25169;SDS011;13129;48.012;10.352;2022-07-23T09:00:59;7.40;;;6.85;;
25169;SDS011;13129;48.012;10.352;2022-07-23T09:03:33;9.32;;;8.55;;
25169;SDS011;13129;48.012;10.352;2022-07-23T09:06:00;8.55;;;7.85;;
25169;SDS011;13129;48.012;10.352;2022-07-23T09:11:03;8.60;;;7.90;;
25169;SDS011;13129;48.012;10.352;2022-07-23T09:13:39;9.20;;;8.40;;
25169;SDS011;13129;48.012;10.352;2022-07-23T09:16:14;9.77;;;9.02;;
25169;SDS011;13129;48.012;10.352;2022-07-23T09:18:55;9.30;;;8.50;;
25169;SDS011;13129;48.012;10.352;2022-07-23T09:21:26;9.25;;;8.40;;
25169;SDS011;13129;48.012;10.352;2022-07-23T09:24:08;10.50;;;9.43;;
25169;SDS011;13129;48.012;10.352;2022-07-23T09:34:11;9.95;;;8.98;;
25169;SDS011;13129;48.012;10.352;2022-07-23T09:36:39;9.40;;;8.57;;
25169;SDS011;13129;48.012;10.352;2022-07-23T09:39:06;9.85;;;8.95;;
25169;SDS011;13129;48.012;10.352;2022-07-23T09:41:37;9.32;;;8.43;;
25169;SDS011;13129;48.012;10.352;2022-07-23T09:44:08;8.70;;;7.97;;
25169;SDS011;13129;48.012;10.352;2022-07-23T09:46:35;9.15;;;8.40;;
25169;SDS011;13129;48.012;10.352;2022-07-23T09:49:09;8.93;;;8.13;;
25169;SDS011;13129;48.012;10.352;2022-07-23T09:51:50;9.65;;;8.80;;
25169;SDS011;13129;48.012;10.352;2022-07-23T09:54:24;9.88;;;8.98;;
25169;SDS011;13129;48.012;10.352;2022-07-23T09:56:54;10.18;;;9.38;;
25169;SDS011;13129;48.012;10.352;2022-07-23T09:59:25;9.77;;;8.77;;
25169;SDS011;13129;48.012;10.352;2022-07-23T10:01:55;9.93;;;9.02;;
25169;SDS011;13129;48.012;10.352;2022-07-23T10:04:24;10.25;;;9.23;;
25169;SDS011;13129;48.012;10.352;2022-07-23T10:06:54;9.25;;;8.30;;
25169;SDS011;13129;48.012;10.352;2022-07-23T10:09:28;9.00;;;8.10;;
25169;SDS011;13129;48.012;10.352;2022-07-23T10:11:56;9.13;;;8.23;;
25169;SDS011;13129;48.012;10.352;2022-07-23T10:14:44;10.07;;;8.57;;
25169;SDS011;13129;48.012;10.352;2022-07-23T10:17:10;9.63;;;8.73;;
25169;SDS011;13129;48.012;10.352;2022-07-23T10:19:36;9.98;;;9.07;;
25169;SDS011;13129;48.012;10.352;2022-07-23T10:22:04;10.43;;;9.45;;
25169;SDS011;13129;48.012;10.352;2022-07-23T10:24:39;10.55;;;9.55;;
25169;SDS011;13129;48.012;10.352;2022-07-23T10:30:22;10.77;;;9.57;;
25169;SDS011;13129;48.012;10.352;2022-07-23T10:33:23;10.13;;;9.27;;
25169;SDS011;13129;48.012;10.352;2022-07-23T10:36:25;10.57;;;9.68;;
25169;SDS011;13129;48.012;10.352;2022-07-23T10:41:35;10.40;;;9.40;;
25169;SDS011;13129;48.012;10.352;2022-07-23T10:44:06;10.00;;;9.10;;
25169;SDS011;13129;48.012;10.352;2022-07-23T10:49:42;10.13;;;9.13;;
25169;SDS011;13129;48.012;10.352;2022-07-23T10:57:07;10.25;;;9.38;;
25169;SDS011;13129;48.012;10.352;2022-07-23T11:02:35;11.40;;;10.30;;
25169;SDS011;13129;48.012;10.352;2022-07-23T11:05:04;11.43;;;10.32;;
25169;SDS011;13129;48.012;10.352;2022-07-23T11:09:58;10.65;;;9.73;;
25169;SDS011;13129;48.012;10.352;2022-07-23T11:17:24;9.80;;;9.00;;
25169;SDS011;13129;48.012;10.352;2022-07-23T11:25:12;8.30;;;7.70;;
25169;SDS011;13129;48.012;10.352;2022-07-23T11:28:06;9.68;;;8.88;;
25169;SDS011;13129;48.012;10.352;2022-07-23T11:35:32;10.27;;;9.15;;
25169;SDS011;13129;48.012;10.352;2022-07-23T11:38:06;10.43;;;9.43;;
25169;SDS011;13129;48.012;10.352;2022-07-23T11:40:34;10.35;;;9.15;;
25169;SDS011;13129;48.012;10.352;2022-07-23T11:43:06;10.70;;;9.05;;
25169;SDS011;13129;48.012;10.352;2022-07-23T11:45:38;9.48;;;8.57;;
25169;SDS011;13129;48.012;10.352;2022-07-23T11:48:25;9.98;;;9.07;;
25169;SDS011;13129;48.012;10.352;2022-07-23T11:50:53;9.82;;;8.90;;
25169;SDS011;13129;48.012;10.352;2022-07-23T11:53:21;9.32;;;8.50;;
25169;SDS011;13129;48.012;10.352;2022-07-23T11:55:48;9.35;;;8.55;;
25169;SDS011;13129;48.012;10.352;2022-07-23T11:58:14;9.52;;;8.63;;
25169;SDS011;13129;48.012;10.352;2022-07-23T12:00:40;9.07;;;8.18;;
25169;SDS011;13129;48.012;10.352;2022-07-23T12:03:06;8.93;;;8.15;;
25169;SDS011;13129;48.012;10.352;2022-07-23T12:05:33;9.10;;;8.30;;
25169;SDS011;13129;48.012;10.352;2022-07-23T12:08:00;9.20;;;8.40;;
25169;SDS011;13129;48.012;10.352;2022-07-23T12:10:29;9.25;;;8.25;;
25169;SDS011;13129;48.012;10.352;2022-07-23T12:13:07;9.98;;;9.07;;
25169;SDS011;13129;48.012;10.352;2022-07-23T12:15:39;9.02;;;8.23;;
25169;SDS011;13129;48.012;10.352;2022-07-23T12:18:08;10.00;;;8.63;;
25169;SDS011;13129;48.012;10.352;2022-07-23T12:20:37;9.80;;;8.80;;
25169;SDS011;13129;48.012;10.352;2022-07-23T12:23:08;8.40;;;7.70;;
25169;SDS011;13129;48.012;10.352;2022-07-23T12:25:37;8.40;;;7.70;;
25169;SDS011;13129;48.012;10.352;2022-07-23T12:28:14;8.90;;;8.10;;
25169;SDS011;13129;48.012;10.352;2022-07-23T12:30:53;8.73;;;7.93;;
25169;SDS011;13129;48.012;10.352;2022-07-23T12:33:22;9.02;;;7.75;;
25169;SDS011;13129;48.012;10.352;2022-07-23T12:35:53;8.32;;;7.63;;
25169;SDS011;13129;48.012;10.352;2022-07-23T12:38:21;8.77;;;7.85;;
25169;SDS011;13129;48.012;10.352;2022-07-23T12:43:28;8.48;;;7.80;;
25169;SDS011;13129;48.012;10.352;2022-07-23T12:49:00;10.93;;;8.52;;
25169;SDS011;13129;48.012;10.352;2022-07-23T12:51:26;9.00;;;8.20;;
25169;SDS011;13129;48.012;10.352;2022-07-23T12:56:34;10.10;;;9.10;;
25169;SDS011;13129;48.012;10.352;2022-07-23T12:59:08;10.13;;;9.23;;
25169;SDS011;13129;48.012;10.352;2022-07-23T13:01:40;10.02;;;9.20;;
25169;SDS011;13129;48.012;10.352;2022-07-23T13:04:08;9.10;;;8.40;;
25169;SDS011;13129;48.012;10.352;2022-07-23T13:09:09;9.85;;;8.85;;
25169;SDS011;13129;48.012;10.352;2022-07-23T13:14:05;11.30;;;10.05;;
25169;SDS011;13129;48.012;10.352;2022-07-23T13:16:31;10.25;;;9.35;;
25169;SDS011;13129;48.012;10.352;2022-07-23T13:18:57;8.95;;;8.18;;
25169;SDS011;13129;48.012;10.352;2022-07-23T13:21:24;9.40;;;8.63;;
25169;SDS011;13129;48.012;10.352;2022-07-23T13:23:51;11.18;;;10.07;;
25169;SDS011;13129;48.012;10.352;2022-07-23T13:26:17;10.15;;;9.23;;
25169;SDS011;13129;48.012;10.352;2022-07-23T13:28:43;9.45;;;8.65;;
25169;SDS011;13129;48.012;10.352;2022-07-23T13:31:09;10.25;;;9.32;;
25169;SDS011;13129;48.012;10.352;2022-07-23T13:33:34;10.32;;;9.43;;
25169;SDS011;13129;48.012;10.352;2022-07-23T13:36:00;10.63;;;9.57;;
25169;SDS011;13129;48.012;10.352;2022-07-23T13:38:26;10.25;;;9.35;;
25169;SDS011;13129;48.012;10.352;2022-07-23T13:40:52;10.70;;;9.77;;
25169;SDS011;13129;48.012;10.352;2022-07-23T13:43:20;10.95;;;9.95;;
25169;SDS011;13129;48.012;10.352;2022-07-23T13:45:48;10.70;;;9.80;;
25169;SDS011;13129;48.012;10.352;2022-07-23T13:48:14;11.65;;;9.73;;
25169;SDS011;13129;48.012;10.352;2022-07-23T13:50:41;15.73;;;14.43;;
25169;SDS011;13129;48.012;10.352;2022-07-23T13:53:09;14.07;;;12.88;;
25169;SDS011;13129;48.012;10.352;2022-07-23T13:55:37;10.63;;;9.73;;
25169;SDS011;13129;48.012;10.352;2022-07-23T13:58:04;10.45;;;9.45;;
25169;SDS011;13129;48.012;10.352;2022-07-23T14:00:30;11.18;;;10.18;;
25169;SDS011;13129;48.012;10.352;2022-07-23T14:02:58;12.10;;;10.95;;
25169;SDS011;13129;48.012;10.352;2022-07-23T14:05:24;10.68;;;9.82;;
25169;SDS011;13129;48.012;10.352;2022-07-23T14:07:50;10.77;;;9.77;;
25169;SDS011;13129;48.012;10.352;2022-07-23T14:10:16;11.75;;;10.55;;
25169;SDS011;13129;48.012;10.352;2022-07-23T14:12:44;12.27;;;11.25;;
25169;SDS011;13129;48.012;10.352;2022-07-23T14:15:10;11.35;;;10.25;;
25169;SDS011;13129;48.012;10.352;2022-07-23T14:17:36;11.55;;;10.55;;
25169;SDS011;13129;48.012;10.352;2022-07-23T14:20:03;12.20;;;11.15;;
25169;SDS011;13129;48.012;10.352;2022-07-23T14:22:30;11.98;;;10.98;;
25169;SDS011;13129;48.012;10.352;2022-07-23T14:24:56;11.13;;;10.05;;
25169;SDS011;13129;48.012;10.352;2022-07-23T14:27:23;12.40;;;11.27;;
25169;SDS011;13129;48.012;10.352;2022-07-23T14:29:49;11.70;;;10.70;;
25169;SDS011;13129;48.012;10.352;2022-07-23T14:32:15;12.82;;;11.73;;
25169;SDS011;13129;48.012;10.352;2022-07-23T14:34:41;11.30;;;10.40;;
25169;SDS011;13129;48.012;10.352;2022-07-23T14:37:07;12.82;;;11.63;;
25169;SDS011;13129;48.012;10.352;2022-07-23T14:39:34;12.30;;;11.30;;
25169;SDS011;13129;48.012;10.352;2022-07-23T14:41:59;12.52;;;11.38;;
25169;SDS011;13129;48.012;10.352;2022-07-23T14:44:25;11.23;;;10.18;;
25169;SDS011;13129;48.012;10.352;2022-07-23T14:46:51;12.32;;;11.15;;
25169;SDS011;13129;48.012;10.352;2022-07-23T14:49:18;12.60;;;11.45;;
25169;SDS011;13129;48.012;10.352;2022-07-23T14:51:43;13.27;;;11.50;;
25169;SDS011;13129;48.012;10.352;2022-07-23T14:54:09;12.73;;;11.73;;
25169;SDS011;13129;48.012;10.352;2022-07-23T14:56:35;11.85;;;10.75;;
25169;SDS011;13129;48.012;10.352;2022-07-23T14:59:02;14.18;;;12.75;;
25169;SDS011;13129;48.012;10.352;2022-07-23T15:01:29;13.20;;;11.95;;
25169;SDS011;13129;48.012;10.352;2022-07-23T15:03:55;13.50;;;12.30;;
25169;SDS011;13129;48.012;10.352;2022-07-23T15:06:20;13.25;;;12.15;;
25169;SDS011;13129;48.012;10.352;2022-07-23T15:08:46;13.57;;;12.18;;
25169;SDS011;13129;48.012;10.352;2022-07-23T15:11:12;12.95;;;11.80;;
25169;SDS011;13129;48.012;10.352;2022-07-23T15:13:38;14.05;;;12.73;;
25169;SDS011;13129;48.012;10.352;2022-07-23T15:16:04;13.55;;;12.25;;
25169;SDS011;13129;48.012;10.352;2022-07-23T15:18:30;13.82;;;12.52;;
25169;SDS011;13129;48.012;10.352;2022-07-23T15:20:56;14.00;;;12.70;;
25169;SDS011;13129;48.012;10.352;2022-07-23T15:23:22;14.43;;;13.00;;
25169;SDS011;13129;48.012;10.352;2022-07-23T15:25:48;13.93;;;12.52;;
25169;SDS011;13129;48.012;10.352;2022-07-23T15:28:14;13.52;;;12.45;;
25169;SDS011;13129;48.012;10.352;2022-07-23T15:30:40;13.82;;;12.48;;
25169;SDS011;13129;48.012;10.352;2022-07-23T15:33:06;14.25;;;12.98;;
25169;SDS011;13129;48.012;10.352;2022-07-23T15:35:32;14.05;;;12.85;;
25169;SDS011;13129;48.012;10.352;2022-07-23T15:37:58;14.90;;;13.55;;
25169;SDS011;13129;48.012;10.352;2022-07-23T15:40:24;14.48;;;13.07;;
25169;SDS011;13129;48.012;10.352;2022-07-23T15:42:50;14.13;;;12.82;;
25169;SDS011;13129;48.012;10.352;2022-07-23T15:45:16;14.55;;;13.23;;
25169;SDS011;13129;48.012;10.352;2022-07-23T15:47:42;14.57;;;13.27;;
25169;SDS011;13129;48.012;10.352;2022-07-23T15:50:08;14.07;;;12.85;;
25169;SDS011;13129;48.012;10.352;2022-07-23T15:52:34;14.02;;;12.75;;
25169;SDS011;13129;48.012;10.352;2022-07-23T15:55:00;16.08;;;14.50;;
25169;SDS011;13129;48.012;10.352;2022-07-23T15:57:27;15.27;;;13.88;;
25169;SDS011;13129;48.012;10.352;2022-07-23T15:59:52;15.63;;;14.15;;
25169;SDS011;13129;48.012;10.352;2022-07-23T16:02:21;15.15;;;13.85;;
25169;SDS011;13129;48.012;10.352;2022-07-23T16:04:47;15.95;;;14.38;;
25169;SDS011;13129;48.012;10.352;2022-07-23T16:07:14;15.10;;;13.73;;
25169;SDS011;13129;48.012;10.352;2022-07-23T16:09:41;15.55;;;14.10;;
25169;SDS011;13129;48.012;10.352;2022-07-23T16:12:07;14.68;;;13.25;;
25169;SDS011;13129;48.012;10.352;2022-07-23T16:14:34;15.45;;;14.05;;
25169;SDS011;13129;48.012;10.352;2022-07-23T16:16:59;14.32;;;13.02;;
25169;SDS011;13129;48.012;10.352;2022-07-23T16:19:25;15.88;;;14.38;;
25169;SDS011;13129;48.012;10.352;2022-07-23T16:21:51;14.75;;;13.55;;
25169;SDS011;13129;48.012;10.352;2022-07-23T16:24:17;15.32;;;13.82;;
25169;SDS011;13129;48.012;10.352;2022-07-23T16:26:43;15.40;;;14.10;;
25169;SDS011;13129;48.012;10.352;2022-07-23T16:29:08;16.40;;;14.85;;
25169;SDS011;13129;48.012;10.352;2022-07-23T16:31:34;15.32;;;13.75;;
25169;SDS011;13129;48.012;10.352;2022-07-23T16:33:59;16.33;;;14.68;;
25169;SDS011;13129;48.012;10.352;2022-07-23T16:36:25;15.20;;;13.80;;
25169;SDS011;13129;48.012;10.352;2022-07-23T16:38:51;15.75;;;14.25;;
25169;SDS011;13129;48.012;10.352;2022-07-23T16:41:16;15.52;;;14.23;;
25169;SDS011;13129;48.012;10.352;2022-07-23T16:43:42;16.25;;;14.85;;
25169;SDS011;13129;48.012;10.352;2022-07-23T16:46:08;15.40;;;14.00;;
25169;SDS011;13129;48.012;10.352;2022-07-23T16:48:33;16.17;;;14.88;;
25169;SDS011;13129;48.012;10.352;2022-07-23T16:50:59;15.00;;;13.70;;
25169;SDS011;13129;48.012;10.352;2022-07-23T16:53:25;15.52;;;14.13;;
25169;SDS011;13129;48.012;10.352;2022-07-23T16:55:51;15.57;;;14.18;;
25169;SDS011;13129;48.012;10.352;2022-07-23T16:58:16;14.98;;;13.68;;
25169;SDS011;13129;48.012;10.352;2022-07-23T17:00:42;15.88;;;14.35;;
25169;SDS011;13129;48.012;10.352;2022-07-23T17:03:08;16.95;;;15.32;;
25169;SDS011;13129;48.012;10.352;2022-07-23T17:05:33;16.08;;;14.50;;
25169;SDS011;13129;48.012;10.352;2022-07-23T17:08:00;17.80;;;16.20;;
25169;SDS011;13129;48.012;10.352;2022-07-23T17:10:26;17.60;;;15.90;;
25169;SDS011;13129;48.012;10.352;2022-07-23T17:12:53;18.15;;;16.48;;
25169;SDS011;13129;48.012;10.352;2022-07-23T17:15:19;13.13;;;11.68;;
25169;SDS011;13129;48.012;10.352;2022-07-23T17:17:45;12.68;;;11.48;;
25169;SDS011;13129;48.012;10.352;2022-07-23T17:20:11;13.45;;;12.15;;
25169;SDS011;13129;48.012;10.352;2022-07-23T17:22:40;13.98;;;12.63;;
25169;SDS011;13129;48.012;10.352;2022-07-23T17:25:07;13.55;;;12.35;;
25169;SDS011;13129;48.012;10.352;2022-07-23T17:27:38;13.73;;;12.43;;
25169;SDS011;13129;48.012;10.352;2022-07-23T17:30:08;13.57;;;12.25;;
25169;SDS011;13129;48.012;10.352;2022-07-23T17:32:34;11.10;;;10.15;;
25169;SDS011;13129;48.012;10.352;2022-07-23T17:35:00;13.13;;;11.88;;
25169;SDS011;13129;48.012;10.352;2022-07-23T17:37:26;11.45;;;10.45;;
25169;SDS011;13129;48.012;10.352;2022-07-23T17:39:51;12.35;;;11.13;;
25169;SDS011;13129;48.012;10.352;2022-07-23T17:42:17;11.35;;;10.27;;
25169;SDS011;13129;48.012;10.352;2022-07-23T17:44:43;12.70;;;11.50;;
25169;SDS011;13129;48.012;10.352;2022-07-23T17:47:08;10.82;;;9.93;;
25169;SDS011;13129;48.012;10.352;2022-07-23T17:49:34;12.82;;;10.95;;
25169;SDS011;13129;48.012;10.352;2022-07-23T17:52:03;13.82;;;10.40;;
25169;SDS011;13129;48.012;10.352;2022-07-23T17:54:29;11.30;;;10.15;;
25169;SDS011;13129;48.012;10.352;2022-07-23T17:56:56;13.10;;;10.55;;
25169;SDS011;13129;48.012;10.352;2022-07-23T17:59:22;12.40;;;11.10;;
25169;SDS011;13129;48.012;10.352;2022-07-23T18:01:48;11.23;;;10.23;;
25169;SDS011;13129;48.012;10.352;2022-07-23T18:04:14;10.40;;;9.50;;
25169;SDS011;13129;48.012;10.352;2022-07-23T18:06:40;11.82;;;10.68;;
25169;SDS011;13129;48.012;10.352;2022-07-23T18:09:10;11.25;;;10.30;;
25169;SDS011;13129;48.012;10.352;2022-07-23T18:11:37;14.45;;;12.98;;
25169;SDS011;13129;48.012;10.352;2022-07-23T18:14:07;14.77;;;13.50;;
25169;SDS011;13129;48.012;10.352;2022-07-23T18:19:00;11.05;;;8.27;;
25169;SDS011;13129;48.012;10.352;2022-07-23T18:21:27;14.68;;;11.77;;
25169;SDS011;13129;48.012;10.352;2022-07-23T18:23:54;13.48;;;10.43;;
25169;SDS011;13129;48.012;10.352;2022-07-23T18:26:20;11.13;;;10.05;;
25169;SDS011;13129;48.012;10.352;2022-07-23T18:28:45;11.13;;;10.05;;
25169;SDS011;13129;48.012;10.352;2022-07-23T18:31:11;11.60;;;10.50;;
25169;SDS011;13129;48.012;10.352;2022-07-23T18:33:37;12.57;;;11.40;;
25169;SDS011;13129;48.012;10.352;2022-07-23T18:36:03;12.43;;;11.32;;
25169;SDS011;13129;48.012;10.352;2022-07-23T18:38:29;13.77;;;12.57;;
25169;SDS011;13129;48.012;10.352;2022-07-23T18:40:55;14.77;;;13.38;;
25169;SDS011;13129;48.012;10.352;2022-07-23T18:43:20;15.35;;;13.82;;
25169;SDS011;13129;48.012;10.352;2022-07-23T18:45:46;14.63;;;13.32;;
25169;SDS011;13129;48.012;10.352;2022-07-23T18:48:12;13.00;;;11.82;;